Time;durP1;ratioP1;P1;durP2;ratioP2;P2;SDS_P1;SDS_P2;PMS_P1;PMS_P2;Temp;Humidity;BMP_temperature;BMP_pressure;BME280_temperature;BME280_humidity;BME280_pressure;Samples;Min_cycle;Max_cycle;Signal;HPM_P1;HPM_P2
2022/11/26 00:02:21;;;;;;;8.97;5.77;;;;;;;;;;5080003;28;20071;-66
2022/11/26 00:04:46;;;;;;;10.93;6.40;;;;;;;;;;5063373;28;20465;-66
2022/11/26 00:07:13;;;;;;;12.17;6.70;;;;;;;;;;5063425;28;20040;-66
2022/11/26 00:09:39;;;;;;;9.83;5.50;;;;;;;;;;5063599;28;20060;-67
2022/11/26 00:12:18;;;;;;;10.40;5.43;;;;;;;;;;5063342;28;20023;-66
2022/11/26 00:14:44;;;;;;;7.80;5.40;;;;;;;;;;5080066;28;20082;-66
2022/11/26 00:17:16;;;;;;;7.27;4.80;;;;;;;;;;5080226;28;20063;-65
2022/11/26 00:19:43;;;;;;;8.17;5.30;;;;;;;;;;5063326;28;20038;-67
2022/11/26 00:22:28;;;;;;;9.93;5.17;;;;;;;;;;5062963;28;20027;-66
2022/11/26 00:24:54;;;;;;;6.47;4.60;;;;;;;;;;5078860;28;20443;-66
2022/11/26 00:27:23;;;;;;;8.33;4.37;;;;;;;;;;5063016;28;20035;-66
2022/11/26 00:29:48;;;;;;;8.23;4.80;;;;;;;;;;5079678;28;20171;-66
2022/11/26 00:32:19;;;;;;;5.53;4.23;;;;;;;;;;5063063;28;20457;-66
2022/11/26 00:34:44;;;;;;;8.35;4.65;;;;;;;;;;5062953;28;20085;-66
2022/11/26 00:37:36;;;;;;;5.83;4.17;;;;;;;;;;5062968;28;20039;-68
2022/11/26 00:40:02;;;;;;;9.53;4.50;;;;;;;;;;5075400;28;20039;-65
2022/11/26 00:42:28;;;;;;;5.57;4.47;;;;;;;;;;5096415;28;20066;-68
2022/11/26 00:44:54;;;;;;;8.37;4.57;;;;;;;;;;5096182;28;20067;-66
2022/11/26 00:47:19;;;;;;;7.87;4.50;;;;;;;;;;5062576;28;20035;-66
2022/11/26 00:49:45;;;;;;;8.63;4.70;;;;;;;;;;5062495;28;20038;-65
2022/11/26 00:52:21;;;;;;;6.67;4.50;;;;;;;;;;5062808;28;20067;-66
2022/11/26 00:54:46;;;;;;;6.17;4.40;;;;;;;;;;5062367;28;20466;-65
2022/11/26 00:57:12;;;;;;;7.70;4.73;;;;;;;;;;5095450;28;20028;-65
2022/11/26 00:59:38;;;;;;;7.30;4.87;;;;;;;;;;5062393;28;20055;-65
2022/11/26 01:02:04;;;;;;;6.07;4.43;;;;;;;;;;5062245;28;20126;-66
2022/11/26 01:04:29;;;;;;;8.50;4.47;;;;;;;;;;5062365;28;20031;-65
2022/11/26 01:06:55;;;;;;;7.50;4.57;;;;;;;;;;5061567;28;20122;-67
2022/11/26 01:09:20;;;;;;;7.23;4.40;;;;;;;;;;5077651;28;20484;-65
2022/11/26 01:11:46;;;;;;;7.80;4.93;;;;;;;;;;5060834;28;20046;-66
2022/11/26 01:14:14;;;;;;;10.10;5.43;;;;;;;;;;5060941;28;20031;-65
2022/11/26 01:16:41;;;;;;;8.83;5.03;;;;;;;;;;5077933;28;20027;-66
2022/11/26 01:19:10;;;;;;;7.37;4.50;;;;;;;;;;5094768;28;20496;-66
2022/11/26 01:21:36;;;;;;;7.07;4.60;;;;;;;;;;5077902;28;20128;-65
2022/11/26 01:24:01;;;;;;;6.67;4.30;;;;;;;;;;5078610;28;20135;-67
2022/11/26 01:26:32;;;;;;;6.93;4.33;;;;;;;;;;5061937;28;20046;-65
2022/11/26 01:28:57;;;;;;;6.68;4.55;;;;;;;;;;5061780;28;20032;-65
2022/11/26 01:31:24;;;;;;;6.43;4.70;;;;;;;;;;5078851;28;20569;-66
2022/11/26 01:33:50;;;;;;;7.10;4.50;;;;;;;;;;5061391;28;20088;-65
2022/11/26 01:36:22;;;;;;;7.13;4.07;;;;;;;;;;5061672;28;20047;-66
2022/11/26 01:38:47;;;;;;;10.23;4.70;;;;;;;;;;5079090;28;20035;-65
2022/11/26 01:41:32;;;;;;;8.73;4.70;;;;;;;;;;5078813;28;20439;-65
2022/11/26 01:43:58;;;;;;;9.37;4.80;;;;;;;;;;5061882;28;20039;-65
2022/11/26 01:46:25;;;;;;;7.63;4.53;;;;;;;;;;5061699;28;20046;-66
2022/11/26 01:48:51;;;;;;;7.23;4.63;;;;;;;;;;5061777;28;20067;-65
2022/11/26 01:51:27;;;;;;;8.30;4.80;;;;;;;;;;5061572;28;20108;-67
2022/11/26 01:53:54;;;;;;;10.07;4.70;;;;;;;;;;5061883;28;20494;-65
2022/11/26 01:56:26;;;;;;;10.87;5.30;;;;;;;;;;5061324;28;20397;-66
2022/11/26 01:59:01;;;;;;;9.67;5.00;;;;;;;;;;5060971;28;20446;-66
2022/11/26 02:01:27;;;;;;;13.63;6.07;;;;;;;;;;5061289;28;20232;-66
2022/11/26 02:03:57;;;;;;;10.47;5.63;;;;;;;;;;5061277;28;20141;-66
2022/11/26 02:06:25;;;;;;;10.07;5.90;;;;;;;;;;5077771;28;20035;-66
2022/11/26 02:08:51;;;;;;;10.13;5.40;;;;;;;;;;5077853;28;20054;-65
2022/11/26 02:11:18;;;;;;;9.07;5.57;;;;;;;;;;5061455;28;20032;-65
2022/11/26 02:14:06;;;;;;;11.20;5.57;;;;;;;;;;5069701;28;20112;-65
2022/11/26 02:16:31;;;;;;;7.97;5.23;;;;;;;;;;5077709;28;20058;-66
2022/11/26 02:19:11;;;;;;;7.60;4.87;;;;;;;;;;5077718;28;20035;-66
2022/11/26 02:21:40;;;;;;;12.10;6.43;;;;;;;;;;5061038;28;20042;-66
2022/11/26 02:24:05;;;;;;;10.23;6.07;;;;;;;;;;5060871;28;20047;-65
2022/11/26 02:26:31;;;;;;;10.63;6.37;;;;;;;;;;5077958;28;20519;-65
2022/11/26 02:29:12;;;;;;;10.70;6.77;;;;;;;;;;5060737;28;20067;-65
2022/11/26 02:31:45;;;;;;;12.40;6.30;;;;;;;;;;5060932;28;20473;-65
2022/11/26 02:34:19;;;;;;;10.90;6.03;;;;;;;;;;5061612;28;20032;-67
2022/11/26 02:36:54;;;;;;;8.70;5.10;;;;;;;;;;5040128;28;20067;-65
2022/11/26 02:39:23;;;;;;;7.97;4.83;;;;;;;;;;5040842;28;20039;-68
2022/11/26 02:41:53;;;;;;;8.87;4.67;;;;;;;;;;5041102;28;20036;-66
2022/11/26 02:44:23;;;;;;;8.77;4.10;;;;;;;;;;5074375;28;20398;-65
2022/11/26 02:46:51;;;;;;;5.60;3.90;;;;;;;;;;5042947;28;20293;-65
2022/11/26 02:49:19;;;;;;;5.90;3.63;;;;;;;;;;5044901;28;20043;-65
2022/11/26 02:51:46;;;;;;;7.20;3.83;;;;;;;;;;5061397;28;20031;-65
2022/11/26 02:54:12;;;;;;;6.50;4.20;;;;;;;;;;5044605;28;20127;-65
2022/11/26 02:56:39;;;;;;;5.10;3.77;;;;;;;;;;5061286;28;20123;-65
2022/11/26 02:59:05;;;;;;;7.70;4.20;;;;;;;;;;5077927;28;20147;-66
2022/11/26 03:01:33;;;;;;;8.10;4.40;;;;;;;;;;5044414;28;20519;-65
2022/11/26 03:04:02;;;;;;;6.50;4.50;;;;;;;;;;5044479;28;20115;-66
2022/11/26 03:06:30;;;;;;;7.47;3.90;;;;;;;;;;5044432;28;20032;-66
2022/11/26 03:08:55;;;;;;;5.83;3.83;;;;;;;;;;5061116;28;20443;-66
2022/11/26 03:11:21;;;;;;;5.87;4.40;;;;;;;;;;5061121;28;20073;-68
2022/11/26 03:13:47;;;;;;;11.70;5.40;;;;;;;;;;5061670;28;20036;-66
2022/11/26 03:16:13;;;;;;;10.27;4.63;;;;;;;;;;5044093;28;20109;-65
2022/11/26 03:18:38;;;;;;;11.13;5.40;;;;;;;;;;5060823;28;20466;-65
2022/11/26 03:21:04;;;;;;;11.70;5.93;;;;;;;;;;5044163;28;20036;-65
2022/11/26 03:23:30;;;;;;;10.33;5.80;;;;;;;;;;5044194;28;20032;-65
2022/11/26 03:25:55;;;;;;;8.90;4.73;;;;;;;;;;5060665;28;20028;-66
2022/11/26 03:28:21;;;;;;;10.80;5.30;;;;;;;;;;5061123;28;20109;-65
2022/11/26 03:30:48;;;;;;;7.20;4.97;;;;;;;;;;5044144;28;20121;-65
2022/11/26 03:33:14;;;;;;;6.60;4.07;;;;;;;;;;5043973;28;20036;-65
2022/11/26 03:35:39;;;;;;;7.47;4.27;;;;;;;;;;5043773;28;20386;-66
2022/11/26 03:38:05;;;;;;;10.23;4.80;;;;;;;;;;5044030;28;20130;-66
2022/11/26 03:40:30;;;;;;;7.77;4.17;;;;;;;;;;5043730;28;20063;-66
2022/11/26 03:42:56;;;;;;;10.80;6.03;;;;;;;;;;5043751;28;20036;-66
2022/11/26 03:45:22;;;;;;;10.47;5.60;;;;;;;;;;5044055;28;20031;-65
2022/11/26 03:47:47;;;;;;;8.63;4.60;;;;;;;;;;5043879;28;20032;-65
2022/11/26 03:50:13;;;;;;;9.50;4.37;;;;;;;;;;5043491;28;20040;-66
2022/11/26 03:52:38;;;;;;;9.33;4.83;;;;;;;;;;5043640;28;20043;-66
2022/11/26 03:55:04;;;;;;;8.23;5.00;;;;;;;;;;5043618;28;20130;-65
2022/11/26 03:57:30;;;;;;;13.83;6.03;;;;;;;;;;5060069;28;20101;-66
2022/11/26 03:59:55;;;;;;;10.43;5.10;;;;;;;;;;5043216;28;20048;-67
2022/11/26 04:02:21;;;;;;;8.73;5.17;;;;;;;;;;5043832;28;20051;-66
2022/11/26 04:04:46;;;;;;;7.10;4.60;;;;;;;;;;5060149;28;20032;-66
2022/11/26 04:07:12;;;;;;;7.63;4.63;;;;;;;;;;5060041;28;20097;-65
2022/11/26 04:09:37;;;;;;;5.87;3.90;;;;;;;;;;5043480;28;20571;-66
2022/11/26 04:12:03;;;;;;;7.50;4.40;;;;;;;;;;5043111;28;20043;-66
2022/11/26 04:14:29;;;;;;;8.10;4.40;;;;;;;;;;5059722;28;20037;-65
2022/11/26 04:16:54;;;;;;;7.03;4.77;;;;;;;;;;5043321;28;20063;-68
2022/11/26 04:19:20;;;;;;;6.33;4.40;;;;;;;;;;5043445;28;20395;-65
2022/11/26 04:21:45;;;;;;;8.53;4.47;;;;;;;;;;5043043;28;20370;-65
2022/11/26 04:24:11;;;;;;;8.43;5.33;;;;;;;;;;5043263;28;20378;-65
2022/11/26 04:26:36;;;;;;;8.20;4.77;;;;;;;;;;5042983;28;20040;-65
2022/11/26 04:29:02;;;;;;;7.47;4.27;;;;;;;;;;5059921;28;20467;-66
2022/11/26 04:31:28;;;;;;;7.00;4.23;;;;;;;;;;5042736;28;20032;-66
2022/11/26 04:33:54;;;;;;;8.00;4.23;;;;;;;;;;5059840;28;20549;-67
2022/11/26 04:36:20;;;;;;;5.77;3.83;;;;;;;;;;5059441;28;20161;-65
2022/11/26 04:38:45;;;;;;;6.73;4.00;;;;;;;;;;5042936;28;20774;-65
2022/11/26 04:41:11;;;;;;;10.37;5.33;;;;;;;;;;5042775;28;20036;-65
2022/11/26 04:43:36;;;;;;;8.33;5.07;;;;;;;;;;5042709;28;20343;-66
2022/11/26 04:46:02;;;;;;;5.27;3.90;;;;;;;;;;5042561;28;20382;-65
2022/11/26 04:48:27;;;;;;;7.60;4.70;;;;;;;;;;5042721;28;20036;-66
2022/11/26 04:50:53;;;;;;;10.13;5.17;;;;;;;;;;5042884;28;20040;-66
2022/11/26 04:53:20;;;;;;;7.10;3.80;;;;;;;;;;5042302;28;20036;-66
2022/11/26 04:55:47;;;;;;;5.83;4.23;;;;;;;;;;5042652;28;20956;-65
2022/11/26 04:58:12;;;;;;;9.67;5.50;;;;;;;;;;5042325;28;20043;-66
2022/11/26 05:00:38;;;;;;;6.17;3.93;;;;;;;;;;5059054;28;20453;-66
2022/11/26 05:03:03;;;;;;;4.47;3.33;;;;;;;;;;5058927;28;20055;-66
2022/11/26 05:05:29;;;;;;;7.13;4.60;;;;;;;;;;5042303;28;20059;-67
2022/11/26 05:07:55;;;;;;;7.13;4.47;;;;;;;;;;5042604;28;20058;-66
2022/11/26 05:10:21;;;;;;;7.07;4.40;;;;;;;;;;5058100;28;20093;-66
2022/11/26 05:12:46;;;;;;;6.60;4.17;;;;;;;;;;5047842;28;20028;-66
2022/11/26 05:15:12;;;;;;;8.27;4.17;;;;;;;;;;5050222;28;20043;-66
2022/11/26 05:17:37;;;;;;;9.43;4.03;;;;;;;;;;5051794;28;20048;-66
2022/11/26 05:20:03;;;;;;;8.57;5.40;;;;;;;;;;5066573;28;20462;-66
2022/11/26 05:22:29;;;;;;;5.43;3.80;;;;;;;;;;5058896;28;20062;-66
2022/11/26 05:24:55;;;;;;;6.33;3.87;;;;;;;;;;5052156;28;20051;-66
2022/11/26 05:27:20;;;;;;;7.67;3.67;;;;;;;;;;5051143;28;20481;-66
2022/11/26 05:29:46;;;;;;;6.67;4.10;;;;;;;;;;5065939;28;20035;-69
2022/11/26 05:32:11;;;;;;;6.13;4.03;;;;;;;;;;5067836;28;20059;-66
2022/11/26 05:34:37;;;;;;;6.07;3.70;;;;;;;;;;5049280;28;20032;-66
2022/11/26 05:37:03;;;;;;;3.87;3.20;;;;;;;;;;5067627;28;20055;-67
2022/11/26 05:39:28;;;;;;;5.87;4.10;;;;;;;;;;5049315;28;20474;-66
2022/11/26 05:41:54;;;;;;;6.90;4.10;;;;;;;;;;5058478;28;20035;-66
2022/11/26 05:44:19;;;;;;;6.33;3.80;;;;;;;;;;5055065;28;20575;-67
2022/11/26 05:46:45;;;;;;;6.20;3.67;;;;;;;;;;5058188;28;20040;-67
2022/11/26 05:49:10;;;;;;;8.40;4.00;;;;;;;;;;5041517;28;20348;-67
2022/11/26 05:51:36;;;;;;;7.27;3.90;;;;;;;;;;5068677;28;20027;-68
2022/11/26 05:54:02;;;;;;;6.17;4.40;;;;;;;;;;5077836;28;20046;-67
2022/11/26 05:56:27;;;;;;;6.90;4.47;;;;;;;;;;5062826;28;20047;-67
2022/11/26 05:58:53;;;;;;;8.40;4.63;;;;;;;;;;5061586;28;20108;-67
2022/11/26 06:01:18;;;;;;;7.37;4.63;;;;;;;;;;5043174;28;20032;-67
2022/11/26 06:03:44;;;;;;;9.57;5.20;;;;;;;;;;5057727;28;20466;-68
2022/11/26 06:06:10;;;;;;;7.27;5.00;;;;;;;;;;5041062;28;20054;-66
2022/11/26 06:08:36;;;;;;;7.57;4.67;;;;;;;;;;5057734;28;20034;-66
2022/11/26 06:11:02;;;;;;;6.30;4.70;;;;;;;;;;5043109;28;20032;-67
2022/11/26 06:13:28;;;;;;;6.70;4.37;;;;;;;;;;5041204;28;20424;-66
2022/11/26 06:15:53;;;;;;;8.17;4.77;;;;;;;;;;5045713;28;20496;-66
2022/11/26 06:18:19;;;;;;;10.17;5.20;;;;;;;;;;5049827;28;20112;-66
2022/11/26 06:20:44;;;;;;;8.53;4.80;;;;;;;;;;5048641;28;20477;-67
2022/11/26 06:23:10;;;;;;;8.73;5.07;;;;;;;;;;5043654;28;20119;-65
2022/11/26 06:25:38;;;;;;;13.93;6.70;;;;;;;;;;5062015;28;20031;-64
2022/11/26 06:28:04;;;;;;;9.90;5.90;;;;;;;;;;5081638;28;20118;-64
2022/11/26 06:30:30;;;;;;;13.83;6.67;;;;;;;;;;5064384;28;20028;-66
2022/11/26 06:32:56;;;;;;;9.13;6.07;;;;;;;;;;5046355;28;20039;-64
2022/11/26 06:35:21;;;;;;;11.60;5.60;;;;;;;;;;5059156;28;20047;-65
2022/11/26 06:37:47;;;;;;;9.57;5.77;;;;;;;;;;5058162;28;20081;-65
2022/11/26 06:40:17;;;;;;;10.70;6.03;;;;;;;;;;5059592;28;20032;-65
2022/11/26 06:42:46;;;;;;;10.17;5.57;;;;;;;;;;5041343;28;20059;-65
2022/11/26 06:45:12;;;;;;;13.90;5.63;;;;;;;;;;5048636;28;20038;-65
2022/11/26 06:47:38;;;;;;;10.27;5.00;;;;;;;;;;5048080;28;20468;-66
2022/11/26 06:50:05;;;;;;;10.73;5.40;;;;;;;;;;5048794;28;20104;-66
2022/11/26 06:52:30;;;;;;;9.67;5.87;;;;;;;;;;5057968;28;20097;-66
2022/11/26 06:54:56;;;;;;;12.67;6.60;;;;;;;;;;5074681;28;20078;-65
2022/11/26 06:57:22;;;;;;;11.73;6.17;;;;;;;;;;5048851;28;20046;-66
2022/11/26 06:59:47;;;;;;;11.53;6.27;;;;;;;;;;5048447;28;20171;-67
2022/11/26 07:02:13;;;;;;;16.47;6.03;;;;;;;;;;5048136;28;20032;-67
2022/11/26 07:04:39;;;;;;;10.97;6.47;;;;;;;;;;5048946;28;20503;-70
2022/11/26 07:07:04;;;;;;;9.00;5.90;;;;;;;;;;5047585;28;20070;-67
2022/11/26 07:09:30;;;;;;;11.63;5.53;;;;;;;;;;5047786;28;20020;-68
2022/11/26 07:11:56;;;;;;;10.20;6.43;;;;;;;;;;5083294;28;20127;-67
2022/11/26 07:14:22;;;;;;;10.53;5.90;;;;;;;;;;5050218;28;20032;-68
2022/11/26 07:16:48;;;;;;;10.80;6.40;;;;;;;;;;5047813;28;20421;-69
2022/11/26 07:19:14;;;;;;;7.90;5.17;;;;;;;;;;5048670;28;20104;-66
2022/11/26 07:21:39;;;;;;;9.93;5.53;;;;;;;;;;5048229;28;20042;-68
2022/11/26 07:24:05;;;;;;;11.17;6.40;;;;;;;;;;5049921;28;20028;-67
2022/11/26 07:26:31;;;;;;;10.67;6.23;;;;;;;;;;5047159;28;20039;-67
2022/11/26 07:28:56;;;;;;;13.07;7.07;;;;;;;;;;5050087;28;20080;-67
2022/11/26 07:31:23;;;;;;;9.90;6.57;;;;;;;;;;5047965;28;20039;-67
2022/11/26 07:33:48;;;;;;;12.80;6.30;;;;;;;;;;5052088;28;20038;-69
2022/11/26 07:36:18;;;;;;;11.07;5.97;;;;;;;;;;5053594;28;20044;-68
2022/11/26 07:38:45;;;;;;;9.88;5.72;;;;;;;;;;5052675;28;20028;-67
2022/11/26 07:41:12;;;;;;;10.97;6.17;;;;;;;;;;5068649;28;20035;-67
2022/11/26 07:43:38;;;;;;;11.80;6.67;;;;;;;;;;5053719;28;20118;-67
2022/11/26 07:46:04;;;;;;;12.27;6.50;;;;;;;;;;5068788;28;20111;-67
2022/11/26 07:48:30;;;;;;;11.30;6.43;;;;;;;;;;5052130;28;20366;-66
2022/11/26 07:50:57;;;;;;;12.83;6.73;;;;;;;;;;5050725;28;20483;-67
2022/11/26 07:53:22;;;;;;;11.83;6.47;;;;;;;;;;5057013;28;20462;-66
2022/11/26 07:55:48;;;;;;;17.47;6.47;;;;;;;;;;5051057;28;20100;-66
2022/11/26 07:58:14;;;;;;;13.13;6.70;;;;;;;;;;5052064;28;20556;-68
2022/11/26 08:00:39;;;;;;;12.77;6.37;;;;;;;;;;5050873;28;20466;-67
2022/11/26 08:03:05;;;;;;;11.23;6.53;;;;;;;;;;5052202;28;20078;-67
2022/11/26 08:05:31;;;;;;;10.90;5.90;;;;;;;;;;5051886;28;20031;-67
2022/11/26 08:07:56;;;;;;;9.17;5.30;;;;;;;;;;5050423;28;20451;-68
2022/11/26 08:10:22;;;;;;;8.57;6.00;;;;;;;;;;5052723;28;20038;-67
2022/11/26 08:12:48;;;;;;;8.83;4.93;;;;;;;;;;5084894;28;20028;-67
2022/11/26 08:15:14;;;;;;;10.47;5.93;;;;;;;;;;5049793;28;20048;-67
2022/11/26 08:17:39;;;;;;;12.33;6.37;;;;;;;;;;5052199;28;20040;-67
2022/11/26 08:20:05;;;;;;;12.50;6.13;;;;;;;;;;5051040;28;20466;-68
2022/11/26 08:22:31;;;;;;;11.43;6.33;;;;;;;;;;5050957;28;20028;-65
2022/11/26 08:24:56;;;;;;;9.63;5.87;;;;;;;;;;5076769;28;20031;-64
2022/11/26 08:27:22;;;;;;;15.00;6.27;;;;;;;;;;5066445;28;20360;-66
2022/11/26 08:29:48;;;;;;;8.63;5.30;;;;;;;;;;5051430;28;20104;-65
2022/11/26 08:32:13;;;;;;;10.33;5.40;;;;;;;;;;5059427;28;20054;-61
2022/11/26 08:34:39;;;;;;;11.13;6.00;;;;;;;;;;5045063;28;20134;-71
2022/11/26 08:37:05;;;;;;;8.30;4.80;;;;;;;;;;5058352;28;20067;-68
2022/11/26 08:39:30;;;;;;;9.57;5.20;;;;;;;;;;5059115;28;20040;-68
2022/11/26 08:41:56;;;;;;;9.83;5.37;;;;;;;;;;5076320;28;20040;-66
2022/11/26 08:44:22;;;;;;;18.47;7.27;;;;;;;;;;5041301;28;20428;-68
2022/11/26 08:46:48;;;;;;;9.70;5.50;;;;;;;;;;5041584;28;20074;-71
2022/11/26 08:49:15;;;;;;;7.70;5.17;;;;;;;;;;5058750;28;20039;-72
2022/11/26 08:51:42;;;;;;;8.87;5.50;;;;;;;;;;5075638;28;20118;-77
2022/11/26 08:54:08;;;;;;;9.20;5.47;;;;;;;;;;5058814;28;20466;-79
2022/11/26 08:56:34;;;;;;;12.27;5.90;;;;;;;;;;5041288;28;20054;-76
2022/11/26 08:59:00;;;;;;;11.80;6.37;;;;;;;;;;5042555;28;20078;-72
2022/11/26 09:01:27;;;;;;;15.30;7.13;;;;;;;;;;5058601;28;20036;-71
2022/11/26 09:03:57;;;;;;;11.13;5.90;;;;;;;;;;5059026;28;20044;-64
2022/11/26 09:06:23;;;;;;;13.60;6.20;;;;;;;;;;5075363;28;20036;-65
2022/11/26 09:11:36;;;;;;;14.00;6.43;;;;;;;;;;5075447;28;20091;-64
2022/11/26 09:14:02;;;;;;;10.97;5.83;;;;;;;;;;5041889;28;20036;-65
2022/11/26 09:16:28;;;;;;;10.90;6.10;;;;;;;;;;5075421;28;20429;-64
2022/11/26 09:18:53;;;;;;;10.03;6.30;;;;;;;;;;5074660;28;20378;-62
2022/11/26 09:21:22;;;;;;;11.50;6.20;;;;;;;;;;5042055;28;20460;-62
2022/11/26 09:23:47;;;;;;;10.73;6.43;;;;;;;;;;5041861;28;20512;-64
2022/11/26 09:26:13;;;;;;;11.63;6.23;;;;;;;;;;5041770;28;20032;-63
2022/11/26 09:28:38;;;;;;;11.03;6.70;;;;;;;;;;5057348;28;20411;-61
2022/11/26 09:31:04;;;;;;;10.10;5.83;;;;;;;;;;5058171;28;20040;-64
2022/11/26 09:33:30;;;;;;;10.60;5.53;;;;;;;;;;5058367;28;20135;-64
2022/11/26 09:36:05;;;;;;;9.43;6.10;;;;;;;;;;5041531;28;20068;-62
2022/11/26 09:38:31;;;;;;;7.77;5.60;;;;;;;;;;5041096;28;20127;-62
2022/11/26 09:41:29;;;;;;;7.73;5.33;;;;;;;;;;5058048;28;20542;-63
2022/11/26 09:44:01;;;;;;;9.87;5.90;;;;;;;;;;5025149;28;20147;-62
2022/11/26 09:46:50;;;;;;;10.07;6.20;;;;;;;;;;5077786;28;20043;-63
2022/11/26 09:49:16;;;;;;;11.63;6.90;;;;;;;;;;5089438;28;20047;-60
2022/11/26 09:51:43;;;;;;;10.70;6.27;;;;;;;;;;5084163;28;20488;-61
2022/11/26 09:54:21;;;;;;;13.37;8.20;;;;;;;;;;5075516;28;20043;-64
2022/11/26 09:56:49;;;;;;;12.17;6.33;;;;;;;;;;5094014;28;20047;-61
2022/11/26 09:59:16;;;;;;;11.43;5.80;;;;;;;;;;5073216;28;20052;-65
2022/11/26 10:01:42;;;;;;;8.23;5.20;;;;;;;;;;5068200;28;20031;-62
2022/11/26 10:04:08;;;;;;;9.43;5.67;;;;;;;;;;5048738;28;20024;-63
2022/11/26 10:06:52;;;;;;;7.70;4.97;;;;;;;;;;5064359;28;20388;-63
2022/11/26 10:09:24;;;;;;;10.47;5.03;;;;;;;;;;5070776;28;20525;-63
2022/11/26 10:11:49;;;;;;;10.33;5.27;;;;;;;;;;5074161;28;20035;-62
2022/11/26 10:14:33;;;;;;;6.53;4.70;;;;;;;;;;5073463;28;20042;-64
2022/11/26 10:17:18;;;;;;;6.97;4.60;;;;;;;;;;5081862;28;20039;-62
2022/11/26 10:19:56;;;;;;;9.07;5.03;;;;;;;;;;5073188;28;20031;-64
2022/11/26 10:22:36;;;;;;;7.33;4.87;;;;;;;;;;5055166;28;20031;-63
2022/11/26 10:25:03;;;;;;;10.82;6.35;;;;;;;;;;5076795;28;20032;-62
2022/11/26 10:27:32;;;;;;;8.20;4.97;;;;;;;;;;5084476;28;20036;-62
2022/11/26 10:30:00;;;;;;;11.83;5.53;;;;;;;;;;5049838;28;20123;-61
2022/11/26 10:32:47;;;;;;;11.53;5.80;;;;;;;;;;5041754;28;20032;-62
2022/11/26 10:35:18;;;;;;;8.43;5.27;;;;;;;;;;5056709;28;20048;-63
2022/11/26 10:37:43;;;;;;;7.10;4.10;;;;;;;;;;5057057;28;20097;-64
2022/11/26 10:40:24;;;;;;;6.17;4.70;;;;;;;;;;5056701;28;20078;-63
2022/11/26 10:42:59;;;;;;;8.68;4.78;;;;;;;;;;5057123;28;20032;-65
2022/11/26 10:45:26;;;;;;;9.07;5.10;;;;;;;;;;5056932;28;20071;-64
2022/11/26 10:47:51;;;;;;;8.97;4.50;;;;;;;;;;5056782;28;20028;-65
2022/11/26 10:50:22;;;;;;;10.10;5.00;;;;;;;;;;5039863;28;20062;-64
2022/11/26 10:52:48;;;;;;;11.23;6.13;;;;;;;;;;5040521;28;20093;-65
2022/11/26 10:55:23;;;;;;;9.03;5.20;;;;;;;;;;5040071;28;20056;-65
2022/11/26 10:57:51;;;;;;;7.90;5.43;;;;;;;;;;5060291;28;20118;-64
2022/11/26 11:00:30;;;;;;;9.30;5.27;;;;;;;;;;5058181;28;20075;-64
2022/11/26 11:02:56;;;;;;;8.20;5.10;;;;;;;;;;5040267;28;20447;-63
2022/11/26 11:05:22;;;;;;;8.03;5.00;;;;;;;;;;5065983;28;20081;-64
2022/11/26 11:07:52;;;;;;;10.53;5.67;;;;;;;;;;5067282;28;20500;-62
2022/11/26 11:10:20;;;;;;;10.70;6.13;;;;;;;;;;5068252;28;20386;-58
2022/11/26 11:12:49;;;;;;;8.93;5.50;;;;;;;;;;5086054;28;20031;-63
2022/11/26 11:15:20;;;;;;;10.10;5.10;;;;;;;;;;5053484;28;20081;-60
2022/11/26 11:17:52;;;;;;;11.43;6.00;;;;;;;;;;5060277;28;20386;-59
2022/11/26 11:20:32;;;;;;;7.33;4.93;;;;;;;;;;5069977;28;20032;-64
2022/11/26 11:22:59;;;;;;;14.53;5.70;;;;;;;;;;5081952;28;20031;-64
2022/11/26 11:25:27;;;;;;;8.97;5.50;;;;;;;;;;5063941;28;20039;-64
2022/11/26 11:27:54;;;;;;;19.87;7.40;;;;;;;;;;5071708;28;20040;-65
2022/11/26 11:30:30;;;;;;;9.37;5.40;;;;;;;;;;5105083;28;20473;-63
2022/11/26 11:33:28;;;;;;;7.17;4.63;;;;;;;;;;5090619;28;20470;-61
2022/11/26 11:36:15;;;;;;;9.23;5.50;;;;;;;;;;5069748;28;20047;-66
2022/11/26 11:38:59;;;;;;;9.07;5.47;;;;;;;;;;5051567;28;20038;-62
2022/11/26 11:41:25;;;;;;;8.87;5.50;;;;;;;;;;5053310;28;20358;-64
2022/11/26 11:44:02;;;;;;;9.43;5.80;;;;;;;;;;5071080;28;20469;-64
2022/11/26 11:46:43;;;;;;;9.00;5.53;;;;;;;;;;5099980;28;20036;-63
2022/11/26 11:49:28;;;;;;;10.13;5.80;;;;;;;;;;5083090;28;20027;-62
2022/11/26 11:52:11;;;;;;;7.60;5.17;;;;;;;;;;5039776;28;20044;-64
2022/11/26 11:54:45;;;;;;;8.63;6.30;;;;;;;;;;5075046;28;20031;-64
2022/11/26 11:57:30;;;;;;;8.70;6.07;;;;;;;;;;5065781;28;20118;-63
2022/11/26 12:00:17;;;;;;;10.17;6.73;;;;;;;;;;5025127;28;20513;-63
2022/11/26 12:03:03;;;;;;;14.10;7.07;;;;;;;;;;5052099;28;20074;-65
2022/11/26 12:06:15;;;;;;;11.97;6.77;;;;;;;;;;5082977;28;20055;-64
2022/11/26 12:08:47;;;;;;;10.97;7.23;;;;;;;;;;5083273;28;20044;-66
2022/11/26 12:11:32;;;;;;;12.57;8.33;;;;;;;;;;5066525;28;20126;-65
2022/11/26 12:14:21;;;;;;;10.67;6.60;;;;;;;;;;5081851;28;20036;-64
2022/11/26 12:16:49;;;;;;;14.57;7.07;;;;;;;;;;5049513;28;20749;-64
2022/11/26 12:19:24;;;;;;;12.70;6.97;;;;;;;;;;5068983;28;20085;-65
2022/11/26 12:22:08;;;;;;;10.63;6.07;;;;;;;;;;5058358;28;20047;-65
2022/11/26 12:24:36;;;;;;;11.93;7.07;;;;;;;;;;5042852;28;20040;-65
2022/11/26 12:27:05;;;;;;;11.10;7.33;;;;;;;;;;5096142;28;20039;-65
2022/11/26 12:29:30;;;;;;;10.80;6.30;;;;;;;;;;5063124;28;20124;-64
2022/11/26 12:31:56;;;;;;;10.13;6.90;;;;;;;;;;5095968;28;20092;-66
2022/11/26 12:34:33;;;;;;;14.93;6.63;;;;;;;;;;5062851;28;20457;-64
2022/11/26 12:37:11;;;;;;;12.27;6.57;;;;;;;;;;5060040;28;20470;-65
2022/11/26 12:39:56;;;;;;;10.50;7.10;;;;;;;;;;5059613;28;20176;-65
2022/11/26 12:42:25;;;;;;;11.17;6.90;;;;;;;;;;5042510;28;20036;-65
2022/11/26 12:44:51;;;;;;;14.37;7.10;;;;;;;;;;5075974;28;20093;-65
2022/11/26 12:47:33;;;;;;;11.57;6.97;;;;;;;;;;5062939;28;20039;-65
2022/11/26 12:49:59;;;;;;;10.37;6.83;;;;;;;;;;5051908;28;20036;-65
2022/11/26 12:52:54;;;;;;;9.43;7.07;;;;;;;;;;5051588;28;20146;-65
2022/11/26 12:55:20;;;;;;;10.13;6.93;;;;;;;;;;5055308;28;20047;-66
2022/11/26 12:57:49;;;;;;;10.73;6.77;;;;;;;;;;5074987;28;20044;-66
2022/11/26 13:00:18;;;;;;;16.17;7.23;;;;;;;;;;5049515;28;20163;-66
2022/11/26 13:02:46;;;;;;;11.48;7.25;;;;;;;;;;5067175;28;20134;-65
2022/11/26 13:05:31;;;;;;;11.40;7.10;;;;;;;;;;5052094;28;20077;-66
2022/11/26 13:08:16;;;;;;;15.10;7.07;;;;;;;;;;5065647;28;20042;-66
2022/11/26 13:11:09;;;;;;;12.07;6.70;;;;;;;;;;5048779;28;20024;-65
2022/11/26 13:13:35;;;;;;;10.90;6.70;;;;;;;;;;5052318;28;20031;-66
2022/11/26 13:16:06;;;;;;;14.33;7.03;;;;;;;;;;5050661;28;20122;-65
2022/11/26 13:18:35;;;;;;;10.80;6.53;;;;;;;;;;5083089;28;20038;-65
2022/11/26 13:21:07;;;;;;;13.87;6.50;;;;;;;;;;5084454;28;20035;-65
2022/11/26 13:23:44;;;;;;;13.97;7.13;;;;;;;;;;5054306;28;20498;-66
2022/11/26 13:26:10;;;;;;;13.97;7.23;;;;;;;;;;5044714;28;20050;-66
2022/11/26 13:28:53;;;;;;;10.77;6.87;;;;;;;;;;5048959;28;20028;-65
2022/11/26 13:31:44;;;;;;;12.07;7.03;;;;;;;;;;5060727;28;20393;-65
2022/11/26 13:34:15;;;;;;;11.30;7.40;;;;;;;;;;5054878;28;20036;-66
2022/11/26 13:36:44;;;;;;;12.63;6.73;;;;;;;;;;5068263;28;20097;-65
2022/11/26 13:39:20;;;;;;;15.20;9.17;;;;;;;;;;5048878;28;20039;-66
2022/11/26 13:42:24;;;;;;;16.33;8.40;;;;;;;;;;5050878;28;20035;-63
2022/11/26 13:44:53;;;;;;;15.57;8.80;;;;;;;;;;4986915;28;20032;-65
2022/11/26 13:47:23;;;;;;;22.40;11.07;;;;;;;;;;5001775;28;20034;-65
2022/11/26 13:49:49;;;;;;;18.75;9.95;;;;;;;;;;5033620;28;20047;-62
2022/11/26 13:52:19;;;;;;;12.40;8.13;;;;;;;;;;5053529;28;20044;-63
2022/11/26 13:54:47;;;;;;;13.85;7.47;;;;;;;;;;5067316;28;20036;-65
2022/11/26 13:57:15;;;;;;;15.67;9.27;;;;;;;;;;5066927;28;20371;-65
2022/11/26 13:59:49;;;;;;;20.00;9.60;;;;;;;;;;5046786;28;20055;-65
2022/11/26 14:02:36;;;;;;;25.50;10.87;;;;;;;;;;5065428;28;20386;-66
2022/11/26 14:05:06;;;;;;;20.07;10.13;;;;;;;;;;5051323;28;20060;-65
2022/11/26 14:07:32;;;;;;;17.70;9.95;;;;;;;;;;5058980;28;20043;-67
2022/11/26 14:09:59;;;;;;;18.80;10.10;;;;;;;;;;5037827;28;20024;-66
2022/11/26 14:12:44;;;;;;;20.50;10.77;;;;;;;;;;5038607;28;20043;-67
2022/11/26 14:15:28;;;;;;;23.10;10.47;;;;;;;;;;5055212;28;20120;-66
2022/11/26 14:17:55;;;;;;;18.70;10.00;;;;;;;;;;5055228;28;20028;-66
2022/11/26 14:20:21;;;;;;;16.70;9.27;;;;;;;;;;5054468;28;20046;-66
2022/11/26 14:22:47;;;;;;;18.23;9.70;;;;;;;;;;5049371;28;20032;-66
2022/11/26 14:25:13;;;;;;;16.53;9.00;;;;;;;;;;5065198;28;20084;-65
2022/11/26 14:27:48;;;;;;;17.70;8.97;;;;;;;;;;5047913;28;20023;-66
2022/11/26 14:30:18;;;;;;;18.57;10.23;;;;;;;;;;5039707;28;20070;-65
2022/11/26 14:32:44;;;;;;;18.33;9.93;;;;;;;;;;5040761;28;20065;-65
2022/11/26 14:35:30;;;;;;;17.77;9.77;;;;;;;;;;5040372;28;20521;-65
2022/11/26 14:37:57;;;;;;;20.57;11.73;;;;;;;;;;5060407;28;20080;-65
2022/11/26 14:40:27;;;;;;;20.40;10.67;;;;;;;;;;5056039;28;20050;-65
2022/11/26 14:43:28;;;;;;;19.87;9.93;;;;;;;;;;5053823;28;20031;-66
2022/11/26 14:46:04;;;;;;;17.37;9.70;;;;;;;;;;4968584;28;20395;-66
2022/11/26 14:48:31;;;;;;;26.53;11.80;;;;;;;;;;5096136;28;20058;-66
2022/11/26 14:50:58;;;;;;;19.50;10.53;;;;;;;;;;5047220;28;20461;-66
2022/11/26 14:53:26;;;;;;;18.63;10.57;;;;;;;;;;5065556;28;20031;-66